Detall de PIREP

Printer-friendly versionPDF version

[2010/08/28 21:36:00]
Flight IATA:CT0001
Pilot Number:042
Company ICAO:CAT
Aircraft Type:B738/F
PAX:120
Departing Airport: LEMH
Destination Airport: LERS
Alternate Airport:LEBL
Online: VATSIM
Route:LUNIK A25 BCN
Flight Level:FL230
No Slew and time accel
No pause
Crash detect
Detect pilot in Cockpit between each 30 and 45 minutes
21:36 Zero fuel Weight: 118700 Lbs, Fuel Weight: 45780 Lbs
21:36 VATSIM:LEMH 282100Z 36003KT 320V030 CAVOK 22/15 Q1017
21:37 VOICE CATALONIAN
21:51 Parking Brakes off
22:00 Take-off
22:00 Take off Weight: 163528 Lbs
22:00 Wind: 001 @ 002 Knots Heading: 008
22:00 POS N39 52 36 E004 13 17
22:00 Gear Up: 179 Knots
22:00 Flaps:4 at 179 Knots
22:00 Flaps:3 at 176 Knots
22:01 Flaps:2 at 163 Knots
22:02 Flaps:1 at 214 Knots
22:03 Flaps:0 at 243 Knots
22:11 TOC
22:11 Fuel Weight: 42059 Lb
22:15 Wind:272@023 Knots Heading: 310 Ground Speed: 414 Knots Altitude 23005 ft
22:18 TOD
22:18 Fuel Weight: 41320 Lb
22:23 Flaps:1 at 233 Knots
22:24 Flaps:2 at 222 Knots
22:25 Flaps:3 at 218 Knots
22:27 Flaps:4 at 184 Knots
22:29 Flaps:5 at 185 Knots
22:30 Wind:313@020 Knots Heading: 277 Ground Speed: 176 Knots Altitude 5095 ft
22:31 Flaps:6 at 173 Knots
22:33 Flaps:7 at 160 Knots
22:33 Gear Down: 159 Knots
22:34 Flaps:8 at 159 Knots
22:38 TouchDown:Rate -382 ft/min Speed: 147 Knots
22:38 VATSIM:LERS 282200Z 22004KT 9999 FEW030 23/18 Q1017
22:38 Land
22:38 Wind:223@004 Knots
22:38 Heading: 249
22:38 Flight Duration: 00:38
22:38 Landing Weight: 158362 Lbs
22:38 POS N41 08 50 E001 10 00
22:40 Parking brakes on
22:40 Block to Block Duration: 00:49
22:40 Final Fuel: 39499 Lbls
22:40 Spent Fuel: 6280 Lbls
22:40 Flight Length: 179 NM
22:40 TOD Land Length: 74 NM

Exportar CSV

Powered by Drupal - Modified by Danger4k